This is the latest recevied weather packets stored in our database for station/object OH2FDL-2. If no packets are shown the sender has not sent any weather packets the latest 10 day(s).
| Time | Temp. | Humidity | Pressure | Rain* | Wind** | Luminosity | Snow |
|---|---|---|---|---|---|---|---|
| 1777470318 | 11.11° C | 39% | 1019.4 hPa | - | - | - | - |
| 1777469418 | 11.67° C | 40% | 1019.6 hPa | - | - | - | - |
| 1777468518 | 11.11° C | 40% | 1019.6 hPa | - | - | - | - |
| 1777465817 | 10.56° C | 44% | 1019.9 hPa | - | - | - | - |
| 1777462218 | 7.78° C | 47% | 1020.3 hPa | - | - | - | - |
| 1777458618 | 7.78° C | 48% | 1020.5 hPa | - | - | - | - |
| 1777456818 | 7.78° C | 48% | 1020.5 hPa | - | - | - | - |
| 1777449618 | 5° C | 58% | 1020.8 hPa | - | - | - | - |
| 1777447818 | 5° C | 60% | 1020.9 hPa | - | - | - | - |
| 1777445118 | 4.44° C | 64% | 1020.8 hPa | - | - | - | - |
| 1777436118 | 2.22° C | 76% | 1020.5 hPa | - | - | - | - |
| 1777431619 | 1.11° C | 76% | 1019.9 hPa | - | - | - | - |
| 1777430718 | 1.11° C | 76% | 1019.8 hPa | - | - | - | - |
| 1777424418 | 1.67° C | 74% | 1019.1 hPa | - | - | - | - |
| 1777422618 | 1.67° C | 73% | 1018.9 hPa | - | - | - | - |
| 1777419918 | 1.67° C | 73% | 1018.8 hPa | - | - | - | - |
| 1777419018 | 1.67° C | 73% | 1018.8 hPa | - | - | - | - |
| 1777408218 | 1.11° C | 65% | 1018 hPa | - | - | - | - |
| 1777394718 | 5.56° C | 53% | 1016.2 hPa | - | - | - | - |
| 1777392019 | 6.11° C | 52% | 1015.8 hPa | - | - | - | - |
| 1777384819 | 6.67° C | 52% | 1015.3 hPa | - | - | - | - |
| 1777383919 | 7.22° C | 52% | 1015.2 hPa | - | - | - | - |
| 1777366818 | 6.11° C | 66% | 1013.9 hPa | - | - | - | - |
| 1777356018 | 2.22° C | 87% | 1013.4 hPa | - | - | - | - |
| 1777353318 | 1.67° C | 90% | 1013.3 hPa | - | - | - | - |
* Rain since midnight (hover to see other rain measurements)
** Current wind speed in m/s (hover to see current wind gust speed)